createdAt,value
2023-01-13T00:00:21.532Z,18.09
2023-01-13T00:01:25.878Z,18.13
2023-01-13T00:02:27.783Z,18.14
2023-01-13T00:03:29.625Z,18.06
2023-01-13T00:04:31.915Z,18.13
2023-01-13T00:05:33.861Z,18.13
2023-01-13T00:06:35.628Z,18.11
2023-01-13T00:07:40.163Z,18.11
2023-01-13T00:08:42.035Z,18.09
2023-01-13T00:09:43.814Z,18.09
2023-01-13T00:10:48.517Z,18.09
2023-01-13T00:11:50.402Z,18.08
2023-01-13T00:12:53.541Z,18.09
2023-01-13T00:13:55.996Z,18.07
2023-01-13T00:14:57.901Z,17.93
2023-01-13T00:16:07.719Z,18.00
2023-01-13T00:17:09.687Z,18.08
2023-01-13T00:18:11.524Z,18.08
2023-01-13T00:19:13.302Z,18.06
2023-01-13T00:20:15.611Z,18.05
2023-01-13T00:21:23.242Z,18.04
2023-01-13T00:22:25.012Z,18.06
2023-01-13T00:23:31.673Z,18.04
2023-01-13T00:24:33.533Z,18.05
2023-01-13T00:25:35.314Z,18.03
2023-01-13T00:26:37.114Z,18.03
2023-01-13T00:27:39.387Z,18.03
2023-01-13T00:28:41.649Z,17.95
2023-01-13T00:29:43.406Z,18.01
2023-01-13T00:30:45.602Z,18.00
2023-01-13T00:31:49.200Z,18.01
2023-01-13T00:32:50.985Z,18.00
2023-01-13T00:33:53.315Z,17.97
2023-01-13T00:34:55.181Z,17.99
2023-01-13T00:35:58.563Z,17.94
2023-01-13T00:37:00.423Z,17.99
2023-01-13T00:38:02.310Z,17.97
2023-01-13T00:39:04.616Z,17.98
2023-01-13T00:40:07.078Z,17.98
2023-01-13T00:41:12.016Z,17.96
2023-01-13T00:42:32.568Z,17.97
2023-01-13T00:43:36.044Z,18.01
2023-01-13T00:44:37.956Z,18.00
2023-01-13T00:45:39.762Z,17.97
2023-01-13T00:46:41.690Z,17.96
2023-01-13T00:47:43.491Z,17.94
2023-01-13T00:48:46.985Z,17.91
2023-01-13T00:49:50.064Z,17.93
2023-01-13T00:51:07.202Z,17.95
2023-01-13T00:52:09.039Z,17.96
2023-01-13T00:53:10.976Z,17.95
2023-01-13T00:54:12.829Z,17.94
2023-01-13T00:55:14.821Z,17.93
2023-01-13T00:56:39.009Z,17.92
2023-01-13T00:57:42.242Z,17.97
2023-01-13T00:58:45.717Z,17.94
2023-01-13T00:59:49.595Z,17.84
2023-01-13T01:00:51.747Z,17.91
2023-01-13T01:01:53.695Z,17.90
2023-01-13T01:02:55.906Z,17.90
2023-01-13T01:03:57.705Z,17.89
2023-01-13T01:05:00.059Z,17.89
2023-01-13T01:06:08.372Z,17.88
2023-01-13T01:07:10.122Z,17.90
2023-01-13T01:08:11.956Z,17.89
2023-01-13T01:09:15.759Z,17.87
2023-01-13T01:10:17.635Z,17.87
2023-01-13T01:11:22.865Z,17.86
2023-01-13T01:12:24.668Z,17.87
2023-01-13T01:13:26.502Z,17.85
2023-01-13T01:14:28.439Z,17.85
2023-01-13T01:15:30.195Z,17.84
2023-01-13T01:16:33.767Z,17.84
2023-01-13T01:17:36.686Z,17.84
2023-01-13T01:18:41.269Z,17.84
2023-01-13T01:19:43.104Z,17.84
2023-01-13T01:20:44.858Z,17.81
2023-01-13T01:21:46.878Z,17.83
2023-01-13T01:22:48.638Z,17.83
2023-01-13T01:23:50.824Z,17.82
2023-01-13T01:24:52.630Z,17.82
2023-01-13T01:25:54.426Z,17.74
2023-01-13T01:26:56.200Z,17.82
2023-01-13T01:27:57.987Z,17.80
2023-01-13T01:29:02.267Z,17.80
2023-01-13T01:30:04.491Z,17.79
2023-01-13T01:31:12.697Z,17.79
2023-01-13T01:32:14.495Z,17.82
2023-01-13T01:33:16.884Z,17.80
2023-01-13T01:34:18.924Z,17.79
2023-01-13T01:35:20.665Z,17.78
2023-01-13T01:36:24.223Z,17.78
2023-01-13T01:37:26.023Z,17.77
2023-01-13T01:38:28.777Z,17.77
2023-01-13T01:39:30.842Z,17.76
2023-01-13T01:40:32.737Z,17.75
2023-01-13T01:41:36.057Z,17.75
2023-01-13T01:42:56.176Z,17.72
2023-01-13T01:43:59.289Z,17.79
2023-01-13T01:45:13.672Z,17.61
2023-01-13T01:46:15.465Z,17.76
2023-01-13T01:47:18.854Z,17.73
2023-01-13T01:48:20.904Z,17.73
2023-01-13T01:49:29.195Z,17.74
2023-01-13T01:50:31.661Z,17.74
2023-01-13T01:51:39.004Z,17.71
2023-01-13T01:52:43.438Z,17.72
2023-01-13T01:53:48.051Z,17.74
2023-01-13T01:54:56.007Z,17.73
2023-01-13T01:55:59.514Z,17.73
2023-01-13T01:57:01.529Z,17.73
2023-01-13T01:58:09.297Z,17.71
2023-01-13T01:59:12.432Z,17.72
2023-01-13T02:00:14.918Z,17.52
2023-01-13T02:01:17.216Z,17.68
2023-01-13T02:02:19.170Z,17.65
2023-01-13T02:03:21.312Z,17.69
2023-01-13T02:04:29.622Z,17.68
2023-01-13T02:05:31.465Z,17.70
2023-01-13T02:06:33.390Z,17.69
2023-01-13T02:07:38.470Z,17.68
2023-01-13T02:08:41.392Z,17.67
2023-01-13T02:09:43.471Z,17.67
2023-01-13T02:10:50.677Z,17.66
2023-01-13T02:12:11.039Z,17.64
2023-01-13T02:13:13.686Z,17.61
2023-01-13T02:14:15.991Z,17.67
2023-01-13T02:15:23.635Z,17.60
2023-01-13T02:16:25.851Z,17.67
2023-01-13T02:17:35.749Z,17.65
2023-01-13T02:19:02.048Z,17.70
2023-01-13T02:20:28.124Z,17.75
2023-01-13T02:22:22.324Z,17.77
2023-01-13T02:23:45.867Z,17.78
2023-01-13T02:25:41.559Z,17.80
2023-01-13T02:26:59.233Z,17.79
2023-01-13T02:28:39.660Z,17.69
2023-01-13T02:30:27.146Z,17.79
2023-01-13T02:31:44.759Z,17.76
2023-01-13T02:32:53.910Z,17.72
2023-01-13T02:34:09.907Z,17.64
2023-01-13T02:35:23.174Z,17.67
2023-01-13T02:36:39.936Z,17.67
2023-01-13T02:37:44.067Z,17.63
2023-01-13T02:38:54.302Z,17.54
2023-01-13T02:40:04.712Z,17.54
2023-01-13T02:41:35.674Z,17.60
2023-01-13T02:43:01.937Z,17.64
2023-01-13T02:44:06.772Z,17.65
2023-01-13T02:45:32.364Z,17.66
2023-01-13T02:46:56.825Z,17.57
2023-01-13T02:48:02.082Z,17.63
2023-01-13T02:49:08.419Z,17.57
2023-01-13T02:50:18.061Z,17.58
2023-01-13T02:51:24.109Z,17.55
2023-01-13T02:52:37.895Z,17.57
2023-01-13T02:53:57.520Z,17.60
2023-01-13T02:55:06.919Z,17.56
2023-01-13T02:56:10.391Z,17.52
2023-01-13T02:57:14.863Z,17.50
2023-01-13T02:58:21.339Z,17.50
2023-01-13T02:59:26.270Z,17.53
2023-01-13T03:00:28.811Z,17.52
2023-01-13T03:01:30.722Z,17.51
2023-01-13T03:02:32.627Z,17.51
2023-01-13T03:03:34.646Z,17.42
2023-01-13T03:05:05.943Z,17.47
2023-01-13T03:06:44.360Z,17.61
2023-01-13T03:07:55.772Z,17.62
2023-01-13T03:09:06.990Z,17.58
2023-01-13T03:10:29.828Z,17.55
2023-01-13T03:11:42.881Z,17.56
2023-01-13T03:12:59.173Z,17.48
2023-01-13T03:14:24.024Z,17.55
2023-01-13T03:15:43.618Z,17.56
2023-01-13T03:17:15.068Z,17.61
2023-01-13T03:18:24.204Z,17.57
2023-01-13T03:19:34.641Z,17.36
2023-01-13T03:20:43.815Z,17.51
2023-01-13T03:22:09.069Z,17.54
2023-01-13T03:23:26.623Z,17.49
2023-01-13T03:24:38.968Z,17.45
2023-01-13T03:25:50.708Z,17.50
2023-01-13T03:27:23.875Z,17.51
2023-01-13T03:28:37.641Z,17.53
2023-01-13T03:29:45.577Z,17.51
2023-01-13T03:30:55.382Z,17.48
2023-01-13T03:32:03.037Z,17.47
2023-01-13T03:33:10.374Z,17.42
2023-01-13T03:34:19.690Z,17.44
2023-01-13T03:35:36.852Z,17.46
2023-01-13T03:36:40.915Z,17.46
2023-01-13T03:37:47.053Z,17.40
2023-01-13T03:38:54.470Z,17.43
2023-01-13T03:40:02.302Z,17.42
2023-01-13T03:41:12.006Z,17.41
2023-01-13T03:42:19.629Z,17.38
2023-01-13T03:43:50.317Z,17.35
2023-01-13T03:45:03.819Z,17.49
2023-01-13T03:46:12.875Z,17.45
2023-01-13T03:47:51.788Z,17.47
2023-01-13T03:48:58.390Z,17.48
2023-01-13T03:50:12.559Z,17.46
2023-01-13T03:51:19.664Z,17.42
2023-01-13T03:52:49.178Z,17.44
2023-01-13T03:53:57.248Z,17.45
2023-01-13T03:55:10.938Z,17.43
2023-01-13T03:56:29.240Z,17.43
2023-01-13T03:57:37.554Z,17.42
2023-01-13T03:58:44.246Z,17.40
2023-01-13T03:59:51.119Z,17.38
2023-01-13T04:01:14.193Z,17.41
2023-01-13T04:02:42.868Z,17.38
2023-01-13T04:04:04.320Z,17.47
2023-01-13T04:05:09.966Z,17.41
2023-01-13T04:06:17.110Z,17.40
2023-01-13T04:07:32.991Z,17.38
2023-01-13T04:08:36.663Z,17.39
2023-01-13T04:09:44.429Z,17.37
2023-01-13T04:10:53.966Z,17.33
2023-01-13T04:12:17.819Z,17.40
2023-01-13T04:13:23.497Z,17.38
2023-01-13T04:14:27.990Z,17.36
2023-01-13T04:15:33.894Z,17.36
2023-01-13T04:16:37.739Z,17.35
2023-01-13T04:17:39.630Z,17.33
2023-01-13T04:18:41.803Z,17.34
2023-01-13T04:19:43.710Z,17.33
2023-01-13T04:20:48.705Z,17.30
2023-01-13T04:21:50.490Z,17.32
2023-01-13T04:22:52.265Z,17.32
2023-01-13T04:23:54.089Z,17.23
2023-01-13T04:24:55.977Z,17.31
2023-01-13T04:25:57.780Z,17.30
2023-01-13T04:26:59.732Z,17.30
2023-01-13T04:28:01.845Z,17.30
2023-01-13T04:29:03.617Z,17.30
2023-01-13T04:30:06.805Z,17.29
2023-01-13T04:31:08.653Z,17.26
2023-01-13T04:32:10.548Z,17.23
2023-01-13T04:33:13.691Z,17.30
2023-01-13T04:34:15.628Z,17.30
2023-01-13T04:35:17.388Z,17.24
2023-01-13T04:36:19.728Z,17.30
2023-01-13T04:37:21.642Z,17.31
2023-01-13T04:38:23.514Z,17.31
2023-01-13T04:39:25.288Z,17.31
2023-01-13T04:40:27.148Z,17.24
2023-01-13T04:41:49.282Z,17.29
2023-01-13T04:42:51.076Z,17.36
2023-01-13T04:43:53.000Z,17.34
2023-01-13T04:44:54.976Z,17.34
2023-01-13T04:45:56.821Z,17.33
2023-01-13T04:46:58.887Z,17.26
2023-01-13T04:48:00.754Z,17.31
2023-01-13T04:49:02.543Z,17.31
2023-01-13T04:50:04.938Z,17.30
2023-01-13T04:51:06.910Z,17.30
2023-01-13T04:52:08.747Z,17.25
2023-01-13T04:53:10.707Z,17.29
2023-01-13T04:54:12.635Z,17.26
2023-01-13T04:55:14.558Z,17.26
2023-01-13T04:56:16.548Z,17.31
2023-01-13T04:57:18.469Z,17.24
2023-01-13T04:58:21.032Z,17.29
2023-01-13T04:59:23.178Z,17.29
2023-01-13T05:00:25.090Z,17.30
2023-01-13T05:01:26.995Z,17.28
2023-01-13T05:02:28.784Z,17.25
2023-01-13T05:03:30.636Z,17.29
2023-01-13T05:04:32.495Z,17.27
2023-01-13T05:05:34.655Z,17.29
2023-01-13T05:06:36.529Z,17.27
2023-01-13T05:07:38.623Z,17.28
2023-01-13T05:08:40.517Z,17.28
2023-01-13T05:09:42.521Z,17.27
2023-01-13T05:10:44.295Z,17.28
2023-01-13T05:12:04.580Z,17.26
2023-01-13T05:13:24.900Z,17.32
2023-01-13T05:14:45.978Z,17.34
2023-01-13T05:16:06.994Z,17.34
2023-01-13T05:17:10.836Z,17.35
2023-01-13T05:18:13.234Z,17.28
2023-01-13T05:19:15.029Z,17.29
2023-01-13T05:20:16.954Z,17.27
2023-01-13T05:21:37.456Z,17.25
2023-01-13T05:22:57.833Z,17.29
2023-01-13T05:24:18.383Z,17.31
2023-01-13T05:25:24.587Z,17.29
2023-01-13T05:26:26.357Z,17.30
2023-01-13T05:27:28.417Z,17.28
2023-01-13T05:28:34.247Z,17.24
2023-01-13T05:29:36.076Z,17.25
2023-01-13T05:30:42.524Z,17.23
2023-01-13T05:31:44.304Z,17.23
2023-01-13T05:32:46.216Z,17.23
2023-01-13T05:33:47.969Z,17.15
2023-01-13T05:34:50.093Z,17.21
2023-01-13T05:35:52.025Z,17.16
2023-01-13T05:36:53.860Z,17.21
2023-01-13T05:37:56.455Z,17.19
2023-01-13T05:38:58.209Z,17.19
2023-01-13T05:40:18.812Z,17.14
2023-01-13T05:41:39.292Z,17.23
2023-01-13T05:42:59.559Z,17.09
2023-01-13T05:44:01.487Z,17.27
2023-01-13T05:45:03.505Z,17.14
2023-01-13T05:46:08.841Z,17.20
2023-01-13T05:47:10.780Z,17.21
2023-01-13T05:48:13.479Z,17.19
2023-01-13T05:49:15.246Z,17.17
2023-01-13T05:50:17.887Z,17.13
2023-01-13T05:51:22.528Z,17.17
2023-01-13T05:52:24.380Z,17.17
2023-01-13T05:53:26.547Z,17.16
2023-01-13T05:54:28.314Z,17.13
2023-01-13T05:55:30.227Z,17.15
2023-01-13T05:56:31.979Z,17.16
2023-01-13T05:57:33.775Z,17.16
2023-01-13T05:58:36.280Z,17.15
2023-01-13T05:59:38.101Z,17.15
2023-01-13T06:00:41.795Z,17.12
2023-01-13T06:01:43.853Z,17.07
2023-01-13T06:02:45.665Z,17.13
2023-01-13T06:03:47.443Z,17.13
2023-01-13T06:04:49.392Z,17.13
2023-01-13T06:05:53.523Z,17.12
2023-01-13T06:06:56.048Z,17.13
2023-01-13T06:07:59.103Z,17.13
2023-01-13T06:09:00.955Z,17.08
2023-01-13T06:10:02.880Z,17.14
2023-01-13T06:11:04.838Z,17.16
2023-01-13T06:12:06.714Z,17.16
2023-01-13T06:13:08.727Z,17.19
2023-01-13T06:14:10.480Z,17.20
2023-01-13T06:15:12.338Z,17.21
2023-01-13T06:16:14.220Z,17.23
2023-01-13T06:17:16.704Z,17.24
2023-01-13T06:18:18.863Z,17.26
2023-01-13T06:19:20.714Z,17.29
2023-01-13T06:20:23.264Z,17.29
2023-01-13T06:21:25.237Z,17.29
2023-01-13T06:22:32.427Z,17.35
2023-01-13T06:23:35.323Z,17.41
2023-01-13T06:24:37.367Z,17.43
2023-01-13T06:26:16.265Z,17.50
2023-01-13T06:27:18.531Z,17.59
2023-01-13T06:28:20.355Z,17.59
2023-01-13T06:29:22.124Z,17.54
2023-01-13T06:30:24.150Z,17.61
2023-01-13T06:31:28.803Z,17.64
2023-01-13T06:32:36.616Z,17.65
2023-01-13T06:33:53.545Z,17.72
2023-01-13T06:35:00.462Z,17.76
2023-01-13T06:36:07.123Z,17.77
2023-01-13T06:37:09.039Z,17.82
2023-01-13T06:38:15.667Z,17.73
2023-01-13T06:39:21.859Z,17.84
2023-01-13T06:40:24.830Z,17.87
2023-01-13T06:41:47.498Z,17.90
2023-01-13T06:43:08.803Z,17.97
2023-01-13T06:44:10.645Z,18.04
2023-01-13T06:45:12.529Z,18.03
2023-01-13T06:46:14.429Z,18.04
2023-01-13T06:47:16.869Z,18.04
2023-01-13T06:48:22.223Z,18.06
2023-01-13T06:49:24.007Z,18.08
2023-01-13T06:50:26.248Z,18.10
2023-01-13T06:51:28.000Z,18.11
2023-01-13T06:52:30.583Z,18.13
2023-01-13T06:53:32.557Z,18.16
2023-01-13T06:54:34.785Z,18.12
2023-01-13T06:55:36.865Z,18.16
2023-01-13T06:56:38.632Z,18.21
2023-01-13T06:57:50.743Z,18.22
2023-01-13T06:58:52.494Z,18.25
2023-01-13T06:59:54.336Z,18.04
2023-01-13T07:01:00.576Z,18.25
2023-01-13T07:02:03.219Z,18.18
2023-01-13T07:03:13.187Z,18.27
2023-01-13T07:04:15.068Z,18.30
2023-01-13T07:05:17.809Z,18.30
2023-01-13T07:06:19.748Z,18.30
2023-01-13T07:07:21.571Z,18.29
2023-01-13T07:08:24.834Z,18.29
2023-01-13T07:09:26.668Z,18.24
2023-01-13T07:10:28.518Z,18.30
2023-01-13T07:11:30.350Z,18.32
2023-01-13T07:12:52.133Z,18.32
2023-01-13T07:14:12.763Z,18.31
2023-01-13T07:15:20.497Z,18.39
2023-01-13T07:16:24.342Z,18.38
2023-01-13T07:17:26.297Z,18.36
2023-01-13T07:18:31.830Z,18.35
2023-01-13T07:19:33.700Z,18.34
2023-01-13T07:20:35.645Z,18.34
2023-01-13T07:21:37.499Z,18.34
2023-01-13T07:22:39.263Z,18.34
2023-01-13T07:23:41.973Z,18.33
2023-01-13T07:24:43.829Z,18.33
2023-01-13T07:25:45.652Z,18.34
2023-01-13T07:26:47.584Z,18.30
2023-01-13T07:27:49.769Z,18.35
2023-01-13T07:28:51.624Z,18.13
2023-01-13T07:29:53.502Z,18.34
2023-01-13T07:30:55.580Z,18.35
2023-01-13T07:31:57.375Z,18.34
2023-01-13T07:32:59.262Z,18.34
2023-01-13T07:34:01.086Z,18.33
2023-01-13T07:35:05.573Z,18.33
2023-01-13T07:36:07.948Z,18.33
2023-01-13T07:37:09.834Z,18.26
2023-01-13T07:38:12.071Z,18.32
2023-01-13T07:39:14.002Z,18.32
2023-01-13T07:40:16.031Z,18.31
2023-01-13T07:41:36.264Z,18.31
2023-01-13T07:42:57.508Z,18.33
2023-01-13T07:44:00.491Z,18.37
2023-01-13T07:45:03.284Z,18.34
2023-01-13T07:46:06.672Z,18.32
2023-01-13T07:47:10.533Z,18.30
2023-01-13T07:48:12.355Z,18.30
2023-01-13T07:49:14.383Z,18.28
2023-01-13T07:50:16.337Z,18.28
2023-01-13T07:51:18.169Z,18.27
2023-01-13T07:52:19.948Z,18.27
2023-01-13T07:53:24.919Z,18.23
2023-01-13T07:54:39.773Z,18.27
2023-01-13T07:55:43.870Z,18.27
2023-01-13T07:56:45.747Z,18.28
2023-01-13T07:57:48.581Z,18.22
2023-01-13T07:58:51.186Z,18.28
2023-01-13T07:59:53.007Z,18.25
2023-01-13T08:00:55.787Z,18.08
2023-01-13T08:01:57.879Z,18.22
2023-01-13T08:03:00.696Z,18.22
2023-01-13T08:04:02.628Z,18.18
2023-01-13T08:05:04.716Z,18.24
2023-01-13T08:06:07.201Z,18.23
2023-01-13T08:07:09.084Z,18.23
2023-01-13T08:08:11.114Z,18.22
2023-01-13T08:09:12.967Z,18.22
2023-01-13T08:10:14.866Z,18.23
2023-01-13T08:11:16.806Z,18.23
2023-01-13T08:12:37.248Z,18.24
2023-01-13T08:13:39.161Z,18.29
2023-01-13T08:14:41.010Z,18.27
2023-01-13T08:15:43.336Z,18.14
2023-01-13T08:16:45.232Z,18.23
2023-01-13T08:17:47.278Z,18.24
2023-01-13T08:18:49.112Z,18.24
2023-01-13T08:19:50.920Z,18.18
2023-01-13T08:20:54.172Z,18.23
2023-01-13T08:21:57.288Z,18.21
2023-01-13T08:23:00.235Z,18.22
2023-01-13T08:24:02.088Z,18.21
2023-01-13T08:25:04.837Z,18.22
2023-01-13T08:26:12.856Z,18.22
2023-01-13T08:27:14.657Z,18.22
2023-01-13T08:28:17.604Z,18.23
2023-01-13T08:29:19.378Z,18.22
2023-01-13T08:30:21.675Z,18.20
2023-01-13T08:31:23.476Z,18.20
2023-01-13T08:32:25.544Z,18.21
2023-01-13T08:33:27.867Z,18.20
2023-01-13T08:34:29.732Z,18.19
2023-01-13T08:35:31.703Z,18.19
2023-01-13T08:36:33.468Z,18.18
2023-01-13T08:37:35.448Z,18.18
2023-01-13T08:38:37.855Z,18.18
2023-01-13T08:39:39.661Z,18.19
2023-01-13T08:40:41.578Z,18.18
2023-01-13T08:41:56.421Z,18.13
2023-01-13T08:42:59.281Z,18.19
2023-01-13T08:44:01.099Z,18.19
2023-01-13T08:45:03.041Z,18.18
2023-01-13T08:46:05.223Z,18.19
2023-01-13T08:47:07.024Z,18.18
2023-01-13T08:48:09.249Z,18.11
2023-01-13T08:49:11.094Z,18.18
2023-01-13T08:50:13.055Z,18.18
2023-01-13T08:51:14.855Z,18.18
2023-01-13T08:52:16.838Z,18.11
2023-01-13T08:53:18.940Z,18.15
2023-01-13T08:54:20.865Z,18.18
2023-01-13T08:55:23.138Z,18.19
2023-01-13T08:56:24.944Z,18.18
2023-01-13T08:57:26.800Z,18.18
2023-01-13T08:58:28.888Z,18.08
2023-01-13T08:59:30.901Z,18.15
2023-01-13T09:00:32.708Z,18.18
2023-01-13T09:01:34.694Z,18.18
2023-01-13T09:02:38.506Z,18.18
2023-01-13T09:03:41.880Z,18.10
2023-01-13T09:04:44.731Z,18.18
2023-01-13T09:05:46.538Z,18.17
2023-01-13T09:06:48.751Z,18.18
2023-01-13T09:07:50.632Z,18.19
2023-01-13T09:08:52.482Z,18.19
2023-01-13T09:09:56.212Z,18.16
2023-01-13T09:10:58.145Z,18.13
2023-01-13T09:12:18.318Z,18.19
2023-01-13T09:13:21.812Z,18.23
2023-01-13T09:14:25.970Z,18.23
2023-01-13T09:15:27.978Z,18.21
2023-01-13T09:16:29.892Z,18.22
2023-01-13T09:17:31.665Z,18.20
2023-01-13T09:18:33.479Z,18.21
2023-01-13T09:19:35.601Z,18.17
2023-01-13T09:20:37.941Z,18.22
2023-01-13T09:21:39.745Z,18.16
2023-01-13T09:22:41.791Z,18.23
2023-01-13T09:23:43.549Z,18.23
2023-01-13T09:24:46.206Z,18.23
2023-01-13T09:25:49.255Z,18.22
2023-01-13T09:26:51.293Z,18.23
2023-01-13T09:27:53.166Z,18.18
2023-01-13T09:28:55.387Z,18.23
2023-01-13T09:29:57.181Z,18.22
2023-01-13T09:31:01.757Z,18.21
2023-01-13T09:32:04.797Z,18.18
2023-01-13T09:33:25.104Z,18.23
2023-01-13T09:34:45.642Z,18.22
2023-01-13T09:35:47.497Z,18.29
2023-01-13T09:36:49.569Z,18.22
2023-01-13T09:37:51.377Z,18.26
2023-01-13T09:38:53.298Z,18.24
2023-01-13T09:39:55.486Z,18.21
2023-01-13T09:40:57.328Z,18.19
2023-01-13T09:42:23.772Z,18.22
2023-01-13T09:43:54.444Z,18.29
2023-01-13T09:45:12.018Z,18.33
2023-01-13T09:46:44.246Z,18.30
2023-01-13T09:47:51.222Z,18.33
2023-01-13T09:48:53.270Z,18.28
2023-01-13T09:50:03.796Z,18.28
2023-01-13T09:51:10.063Z,18.27
2023-01-13T09:52:26.946Z,18.26
2023-01-13T09:53:34.109Z,18.28
2023-01-13T09:54:46.037Z,18.27
2023-01-13T09:55:47.835Z,18.28
2023-01-13T09:56:49.733Z,18.25
2023-01-13T09:57:51.511Z,18.14
2023-01-13T09:58:53.431Z,18.25
2023-01-13T09:59:55.234Z,18.17
2023-01-13T10:01:15.639Z,18.23
2023-01-13T10:02:23.150Z,18.27
2023-01-13T10:03:30.013Z,18.23
2023-01-13T10:04:31.882Z,18.26
2023-01-13T10:05:41.339Z,18.24
2023-01-13T10:06:48.340Z,18.25
2023-01-13T10:07:54.749Z,18.25
2023-01-13T10:08:57.733Z,18.26
2023-01-13T10:10:02.146Z,18.25
2023-01-13T10:11:25.506Z,18.25
2023-01-13T10:12:45.900Z,18.28
2023-01-13T10:13:52.406Z,18.29
2023-01-13T10:14:57.235Z,18.27
2023-01-13T10:16:42.215Z,18.27
2023-01-13T10:18:11.502Z,18.32
2023-01-13T10:19:25.962Z,18.34
2023-01-13T10:20:45.114Z,18.27
2023-01-13T10:22:18.127Z,18.31
2023-01-13T10:23:19.904Z,18.33
2023-01-13T10:24:40.172Z,18.29
2023-01-13T10:25:50.852Z,18.29
2023-01-13T10:26:57.100Z,18.27
2023-01-13T10:28:08.644Z,18.24
2023-01-13T10:29:22.217Z,18.26
2023-01-13T10:30:31.440Z,18.21
2023-01-13T10:31:33.378Z,18.25
2023-01-13T10:32:35.199Z,18.24
2023-01-13T10:33:36.978Z,18.23
2023-01-13T10:34:51.249Z,18.23
2023-01-13T10:36:01.653Z,18.25
2023-01-13T10:37:09.348Z,18.24
2023-01-13T10:38:22.878Z,18.24
2023-01-13T10:39:25.392Z,18.25
2023-01-13T10:40:27.185Z,18.24
2023-01-13T10:41:29.070Z,18.21
2023-01-13T10:42:30.920Z,18.14
2023-01-13T10:43:32.917Z,18.21
2023-01-13T10:44:55.451Z,18.21
2023-01-13T10:46:06.288Z,18.22
2023-01-13T10:47:29.037Z,18.27
2023-01-13T10:48:38.638Z,18.28
2023-01-13T10:49:40.581Z,18.28
2023-01-13T10:50:42.856Z,18.27
2023-01-13T10:51:45.244Z,18.25
2023-01-13T10:52:57.753Z,18.25
2023-01-13T10:54:13.227Z,18.25
2023-01-13T10:55:38.665Z,18.31
2023-01-13T10:56:43.157Z,18.30
2023-01-13T10:57:44.940Z,18.27
2023-01-13T10:58:47.122Z,18.25
2023-01-13T10:59:50.987Z,18.21
2023-01-13T11:01:02.126Z,18.24
2023-01-13T11:02:25.313Z,18.26
2023-01-13T11:03:37.678Z,18.29
2023-01-13T11:04:45.129Z,18.21
2023-01-13T11:05:58.941Z,18.29
2023-01-13T11:07:02.585Z,18.29
2023-01-13T11:08:05.286Z,18.27
2023-01-13T11:09:19.742Z,18.25
2023-01-13T11:10:27.516Z,18.27
2023-01-13T11:11:43.844Z,18.29
2023-01-13T11:13:14.513Z,18.33
2023-01-13T11:14:39.510Z,18.33
2023-01-13T11:16:16.601Z,18.35
2023-01-13T11:17:18.353Z,18.37
2023-01-13T11:18:25.932Z,18.31
2023-01-13T11:19:31.843Z,18.21
2023-01-13T11:20:41.289Z,18.23
2023-01-13T11:22:05.812Z,18.30
2023-01-13T11:23:16.555Z,18.30
2023-01-13T11:24:31.058Z,18.32
2023-01-13T11:25:43.519Z,18.31
2023-01-13T11:27:08.398Z,18.29
2023-01-13T11:28:36.243Z,18.35
2023-01-13T11:29:39.950Z,18.33
2023-01-13T11:31:07.941Z,18.35
2023-01-13T11:32:17.878Z,18.33
2023-01-13T11:33:37.829Z,18.33
2023-01-13T11:34:42.051Z,18.29
2023-01-13T11:36:06.382Z,18.34
2023-01-13T11:37:21.520Z,18.32
2023-01-13T11:38:47.816Z,18.34
2023-01-13T11:39:58.128Z,18.30
2023-01-13T11:41:33.241Z,18.28
2023-01-13T11:42:54.658Z,18.35
2023-01-13T11:44:23.547Z,18.37
2023-01-13T11:45:44.488Z,18.33
2023-01-13T11:46:50.194Z,18.32
2023-01-13T11:47:57.240Z,18.29
2023-01-13T11:49:00.906Z,18.28
2023-01-13T11:50:04.141Z,18.20
2023-01-13T11:51:22.983Z,18.26
2023-01-13T11:52:30.816Z,18.28
2023-01-13T11:53:44.685Z,18.28
2023-01-13T11:54:55.323Z,18.27
2023-01-13T11:56:15.911Z,18.31
2023-01-13T11:57:32.879Z,18.30
2023-01-13T11:58:49.639Z,18.29
2023-01-13T12:00:10.882Z,18.30
2023-01-13T12:01:34.518Z,18.31
2023-01-13T12:02:57.170Z,18.28
2023-01-13T12:04:13.237Z,18.34
2023-01-13T12:05:38.673Z,18.33
2023-01-13T12:06:41.988Z,18.32
2023-01-13T12:08:11.072Z,18.32
2023-01-13T12:09:41.884Z,18.32
2023-01-13T12:11:11.988Z,18.35
2023-01-13T12:12:43.305Z,18.37
2023-01-13T12:14:16.927Z,18.37
2023-01-13T12:15:22.267Z,18.36
2023-01-13T12:16:30.559Z,18.31
2023-01-13T12:17:41.566Z,18.28
2023-01-13T12:19:01.919Z,18.29
2023-01-13T12:20:33.277Z,18.33
2023-01-13T12:21:50.298Z,18.34
2023-01-13T12:22:56.870Z,18.27
2023-01-13T12:24:13.886Z,18.28
2023-01-13T12:25:27.991Z,18.28
2023-01-13T12:26:35.816Z,18.29
2023-01-13T12:27:45.837Z,18.28
2023-01-13T12:28:56.684Z,18.27
2023-01-13T12:30:02.436Z,18.28
2023-01-13T12:31:04.487Z,18.29
2023-01-13T12:32:16.533Z,18.27
2023-01-13T12:33:54.818Z,18.25
2023-01-13T12:35:09.114Z,18.37
2023-01-13T12:36:32.677Z,18.33
2023-01-13T12:37:42.909Z,18.34
2023-01-13T12:38:58.663Z,18.32
2023-01-13T12:40:22.093Z,18.31
2023-01-13T12:42:01.030Z,18.34
2023-01-13T12:43:37.539Z,18.38
2023-01-13T12:45:25.030Z,18.42
2023-01-13T12:46:26.788Z,18.43
2023-01-13T12:47:38.153Z,18.37
2023-01-13T12:49:00.764Z,18.34
2023-01-13T12:50:27.084Z,18.37
2023-01-13T12:51:35.646Z,18.32
2023-01-13T12:52:46.575Z,18.34
2023-01-13T12:53:48.776Z,18.33
2023-01-13T12:54:50.584Z,18.14
2023-01-13T12:55:53.200Z,18.28
2023-01-13T12:56:55.311Z,18.26
2023-01-13T12:58:00.298Z,18.26
2023-01-13T12:59:17.562Z,18.30
2023-01-13T13:00:19.855Z,18.30
2023-01-13T13:01:35.764Z,18.31
2023-01-13T13:03:12.494Z,18.36
2023-01-13T13:04:18.496Z,18.36
2023-01-13T13:05:23.256Z,18.34
2023-01-13T13:06:31.316Z,18.31
2023-01-13T13:07:41.851Z,18.31
2023-01-13T13:08:57.422Z,18.27
2023-01-13T13:10:17.530Z,18.36
2023-01-13T13:11:50.077Z,18.36
2023-01-13T13:13:18.584Z,18.38
2023-01-13T13:14:55.682Z,18.45
2023-01-13T13:16:26.456Z,18.44
2023-01-13T13:17:28.269Z,18.42
2023-01-13T13:18:30.461Z,18.37
2023-01-13T13:19:32.233Z,18.34
2023-01-13T13:21:04.231Z,18.34
2023-01-13T13:22:12.226Z,18.35
2023-01-13T13:23:55.196Z,18.40
2023-01-13T13:24:59.959Z,18.39
2023-01-13T13:26:20.293Z,18.34
2023-01-13T13:27:27.464Z,18.35
2023-01-13T13:28:37.155Z,18.32
2023-01-13T13:30:00.491Z,18.31
2023-01-13T13:31:19.686Z,18.25
2023-01-13T13:32:39.828Z,18.39
2023-01-13T13:34:13.879Z,18.37
2023-01-13T13:35:26.408Z,18.40
2023-01-13T13:36:40.041Z,18.38
2023-01-13T13:38:40.655Z,18.44
2023-01-13T13:40:02.748Z,18.39
2023-01-13T13:41:54.281Z,18.47
2023-01-13T13:43:32.474Z,18.48
2023-01-13T13:44:58.169Z,18.43
2023-01-13T13:46:18.628Z,18.44
2023-01-13T13:47:20.893Z,18.42
2023-01-13T13:48:28.268Z,18.36
2023-01-13T13:49:42.946Z,18.35
2023-01-13T13:50:49.138Z,18.32
2023-01-13T13:52:04.298Z,18.36
2023-01-13T13:53:09.371Z,18.37
2023-01-13T13:54:19.292Z,18.26
2023-01-13T13:55:29.864Z,18.30
2023-01-13T13:56:38.468Z,18.33
2023-01-13T13:57:43.557Z,18.34
2023-01-13T13:58:48.280Z,18.22
2023-01-13T13:59:55.142Z,18.34
2023-01-13T14:00:58.597Z,18.37
2023-01-13T14:02:03.683Z,18.18
2023-01-13T14:03:19.741Z,18.38
2023-01-13T14:04:26.074Z,18.33
2023-01-13T14:05:34.114Z,18.37
2023-01-13T14:06:35.976Z,18.40
2023-01-13T14:07:46.662Z,18.38
2023-01-13T14:08:50.404Z,18.37
2023-01-13T14:09:54.588Z,18.32
2023-01-13T14:10:56.872Z,18.38
2023-01-13T14:12:01.656Z,18.37
2023-01-13T14:13:18.110Z,18.26
2023-01-13T14:14:21.145Z,18.41
2023-01-13T14:15:31.637Z,18.39
2023-01-13T14:16:36.283Z,18.40
2023-01-13T14:17:38.656Z,18.41
2023-01-13T14:18:47.710Z,18.39
2023-01-13T14:20:00.834Z,18.40
2023-01-13T14:21:24.574Z,18.43
2023-01-13T14:22:26.587Z,18.45
2023-01-13T14:23:31.032Z,18.42
2023-01-13T14:24:32.925Z,18.43
2023-01-13T14:25:45.860Z,18.40
2023-01-13T14:26:53.208Z,18.43
2023-01-13T14:27:57.485Z,18.42
2023-01-13T14:29:01.629Z,18.41
2023-01-13T14:30:04.523Z,18.35
2023-01-13T14:31:09.405Z,18.41
2023-01-13T14:32:17.535Z,18.40
2023-01-13T14:33:24.767Z,18.41
2023-01-13T14:34:32.200Z,18.42
2023-01-13T14:35:34.857Z,18.43
2023-01-13T14:36:37.902Z,18.37
2023-01-13T14:37:42.055Z,18.42
2023-01-13T14:38:48.844Z,18.41
2023-01-13T14:39:50.649Z,18.41